Time,TemperatureF,DewpointF,PressureIn,WindDirection,WindDirectionDegrees,WindSpeedMPH,WindSpeedGustMPH,Humidity,HourlyPrecipIn,Conditions,Clouds,dailyrainin,SoftwareType,DateUTC
2013-02-03 00:14:00,36.1,33.0,30.06,SW,218,0.0,2.0,89,0.00,,,0.00,weatherlink.com 1.10,2013-02-03 05:14:00,
2013-02-03 00:29:00,35.9,33.0,30.05,SW,218,0.0,2.0,90,0.00,,,0.00,weatherlink.com 1.10,2013-02-03 05:29:00,
2013-02-03 00:44:00,35.9,33.0,30.05,SW,218,0.0,1.0,89,0.00,,,0.00,weatherlink.com 1.10,2013-02-03 05:44:00,
2013-02-03 00:59:00,35.8,33.0,30.05,SW,216,1.0,2.0,90,0.00,,,0.00,weatherlink.com 1.10,2013-02-03 05:59:00,
2013-02-03 01:14:00,35.7,33.0,30.04,SW,216,0.0,2.0,90,0.00,,,0.00,weatherlink.com 1.10,2013-02-03 06:14:00,
2013-02-03 01:29:00,35.4,33.0,30.04,SW,216,0.0,2.0,90,0.00,,,0.00,weatherlink.com 1.10,2013-02-03 06:29:00,
2013-02-03 01:44:00,35.0,33.0,30.03,West,265,1.0,3.0,91,0.00,,,0.00,weatherlink.com 1.10,2013-02-03 06:44:00,
2013-02-03 01:59:00,34.7,32.0,30.03,WNW,282,1.0,3.0,91,0.00,,,0.00,weatherlink.com 1.10,2013-02-03 06:59:00,
2013-02-03 02:14:00,34.6,32.0,30.02,WNW,294,1.0,5.0,91,0.00,,,0.00,weatherlink.com 1.10,2013-02-03 07:14:00,
2013-02-03 02:29:00,34.3,32.0,30.02,WNW,295,1.0,1.0,92,0.00,,,0.00,weatherlink.com 1.10,2013-02-03 07:29:00,
2013-02-03 02:44:00,34.2,32.0,30.01,WNW,295,0.0,2.0,92,0.00,,,0.00,weatherlink.com 1.10,2013-02-03 07:44:00,
2013-02-03 02:59:00,34.0,32.0,30.01,WNW,295,0.0,2.0,93,0.00,,,0.00,weatherlink.com 1.10,2013-02-03 07:59:00,
2013-02-03 03:14:00,34.0,32.0,30.01,WNW,295,0.0,2.0,93,0.00,,,0.00,weatherlink.com 1.10,2013-02-03 08:14:00,
2013-02-03 03:29:00,34.2,32.0,30.01,North,359,0.0,5.0,92,0.00,,,0.00,weatherlink.com 1.10,2013-02-03 08:29:00,
2013-02-03 03:44:00,34.1,32.0,30.00,NW,322,4.0,8.0,91,0.00,,,0.00,weatherlink.com 1.10,2013-02-03 08:44:00,
2013-02-03 03:59:00,35.6,31.0,30.00,NW,306,7.0,19.0,82,0.00,,,0.00,weatherlink.com 1.10,2013-02-03 08:59:00,
2013-02-03 04:14:00,38.1,27.0,29.99,NW,305,9.0,21.0,64,0.00,,,0.00,weatherlink.com 1.10,2013-02-03 09:14:00,
2013-02-03 04:29:00,37.9,26.0,30.00,NW,309,4.0,13.0,62,0.00,,,0.00,weatherlink.com 1.10,2013-02-03 09:29:00,
2013-02-03 04:44:00,37.6,24.0,30.00,WNW,298,8.0,20.0,59,0.00,,,0.00,weatherlink.com 1.10,2013-02-03 09:44:00,
2013-02-03 04:59:00,38.0,24.0,30.00,NW,312,6.0,21.0,57,0.00,,,0.00,weatherlink.com 1.10,2013-02-03 09:59:00,
2013-02-03 05:14:00,37.8,23.0,30.01,NW,326,4.0,14.0,56,0.00,,,0.00,weatherlink.com 1.10,2013-02-03 10:14:00,
2013-02-03 05:29:00,38.0,23.0,30.01,NNW,346,5.0,22.0,56,0.00,,,0.00,weatherlink.com 1.10,2013-02-03 10:29:00,
2013-02-03 05:44:00,37.7,24.0,30.01,NW,325,3.0,12.0,57,0.00,,,0.00,weatherlink.com 1.10,2013-02-03 10:44:00,
2013-02-03 05:59:00,37.3,24.0,30.01,NW,326,1.0,8.0,59,0.00,,,0.00,weatherlink.com 1.10,2013-02-03 10:59:00,
2013-02-03 06:14:00,36.2,24.0,30.01,WSW,251,0.0,3.0,61,0.00,,,0.00,weatherlink.com 1.10,2013-02-03 11:14:00,
2013-02-03 06:29:00,35.6,24.0,30.01,SW,224,1.0,3.0,63,0.00,,,0.00,weatherlink.com 1.10,2013-02-03 11:29:00,
2013-02-03 06:44:00,36.0,24.0,30.00,WNW,289,0.0,2.0,63,0.00,,,0.00,weatherlink.com 1.10,2013-02-03 11:44:00,
2013-02-03 06:59:00,35.9,25.0,30.00,WNW,288,0.0,3.0,64,0.00,,,0.00,weatherlink.com 1.10,2013-02-03 11:59:00,
2013-02-03 07:14:00,35.9,25.0,29.99,West,276,0.0,3.0,65,0.00,,,0.00,weatherlink.com 1.10,2013-02-03 12:14:00,
2013-02-03 07:29:00,36.4,26.0,29.99,WNW,296,4.0,9.0,66,0.00,,,0.00,weatherlink.com 1.10,2013-02-03 12:29:00,
2013-02-03 07:44:00,37.3,26.0,29.99,WNW,291,8.0,11.0,65,0.00,,,0.00,weatherlink.com 1.10,2013-02-03 12:44:00,
2013-02-03 07:59:00,37.4,27.0,29.99,WNW,299,4.0,8.0,65,0.00,,,0.00,weatherlink.com 1.10,2013-02-03 12:59:00,
2013-02-03 08:14:00,38.0,27.0,29.99,WNW,302,1.0,8.0,64,0.00,,,0.00,weatherlink.com 1.10,2013-02-03 13:14:00,
2013-02-03 08:29:00,38.7,27.0,30.00,West,276,4.0,7.0,62,0.00,,,0.00,weatherlink.com 1.10,2013-02-03 13:29:00,
2013-02-03 08:45:00,39.3,27.0,30.00,SW,226,4.0,6.0,62,0.00,,,0.00,weatherlink.com 1.10,2013-02-03 13:45:00,
2013-02-03 09:00:00,38.4,27.0,30.00,South,185,4.0,7.0,64,0.00,,,0.00,weatherlink.com 1.10,2013-02-03 14:00:00,
2013-02-03 09:15:00,38.7,27.0,30.00,SW,215,2.0,6.0,64,0.00,,,0.00,weatherlink.com 1.10,2013-02-03 14:15:00,
2013-02-03 09:30:00,39.8,28.0,30.00,WSW,246,3.0,5.0,62,0.00,,,0.00,weatherlink.com 1.10,2013-02-03 14:30:00,
2013-02-03 09:45:00,41.0,28.0,30.00,West,268,6.0,8.0,61,0.00,,,0.00,weatherlink.com 1.10,2013-02-03 14:45:00,
2013-02-03 10:00:00,41.9,29.0,30.00,WNW,303,4.0,11.0,61,0.00,,,0.00,weatherlink.com 1.10,2013-02-03 15:00:00,
2013-02-03 10:15:00,42.6,30.0,29.99,WNW,303,5.0,12.0,61,0.00,,,0.00,weatherlink.com 1.10,2013-02-03 15:15:00,
2013-02-03 10:30:00,43.5,30.0,29.99,WNW,287,4.0,14.0,60,0.00,,,0.00,weatherlink.com 1.10,2013-02-03 15:30:00,
2013-02-03 10:45:00,43.6,31.0,29.99,West,262,7.0,14.0,61,0.00,,,0.00,weatherlink.com 1.10,2013-02-03 15:45:00,
2013-02-03 11:00:00,44.2,30.0,29.99,West,262,7.0,14.0,59,0.00,,,0.00,weatherlink.com 1.10,2013-02-03 16:00:00,
2013-02-03 11:15:00,45.3,32.0,29.98,NW,318,4.0,11.0,59,0.00,,,0.00,weatherlink.com 1.10,2013-02-03 16:15:00,
2013-02-03 11:30:00,45.6,31.0,29.97,WNW,295,8.0,11.0,57,0.00,,,0.00,weatherlink.com 1.10,2013-02-03 16:30:00,
2013-02-03 11:45:00,46.9,31.0,29.96,NNW,331,10.0,13.0,55,0.00,,,0.00,weatherlink.com 1.10,2013-02-03 16:45:00,
2013-02-03 12:00:00,47.3,30.0,29.95,NW,311,12.0,15.0,52,0.00,,,0.00,weatherlink.com 1.10,2013-02-03 17:00:00,
2013-02-03 12:15:00,48.8,31.0,29.94,NW,318,4.0,15.0,51,0.00,,,0.00,weatherlink.com 1.10,2013-02-03 17:15:00,
2013-02-03 12:30:00,49.6,31.0,29.94,NNW,331,9.0,18.0,49,0.00,,,0.00,weatherlink.com 1.10,2013-02-03 17:30:00,
2013-02-03 12:45:00,48.1,30.0,29.93,NW,305,11.0,23.0,50,0.00,,,0.00,weatherlink.com 1.10,2013-02-03 17:45:00,
2013-02-03 13:00:00,47.5,30.0,29.92,NW,310,6.0,16.0,50,0.00,,,0.00,weatherlink.com 1.10,2013-02-03 18:00:00,
2013-02-03 13:15:00,47.9,29.0,29.92,NW,307,9.0,16.0,48,0.00,,,0.00,weatherlink.com 1.10,2013-02-03 18:15:00,
2013-02-03 13:30:00,48.8,28.0,29.91,NW,312,9.0,17.0,45,0.00,,,0.00,weatherlink.com 1.10,2013-02-03 18:30:00,
2013-02-03 13:45:00,49.1,26.0,29.90,WNW,295,7.0,18.0,41,0.00,,,0.00,weatherlink.com 1.10,2013-02-03 18:45:00,
2013-02-03 14:00:00,49.6,27.0,29.90,NW,306,7.0,23.0,41,0.00,,,0.00,weatherlink.com 1.10,2013-02-03 19:00:00,
2013-02-03 14:15:00,50.0,25.0,29.90,NW,305,12.0,24.0,38,0.00,,,0.00,weatherlink.com 1.10,2013-02-03 19:15:00,
2013-02-03 14:30:00,50.8,25.0,29.91,NNE,25,8.0,16.0,36,0.00,,,0.00,weatherlink.com 1.10,2013-02-03 19:30:00,
2013-02-03 14:45:00,49.1,23.0,29.91,NW,315,20.0,27.0,36,0.00,,,0.00,weatherlink.com 1.10,2013-02-03 19:45:00,
2013-02-03 15:00:00,49.9,25.0,29.92,West,276,11.0,18.0,38,0.00,,,0.00,weatherlink.com 1.10,2013-02-03 20:00:00,
2013-02-03 15:15:00,49.0,24.0,29.92,NNW,327,13.0,24.0,37,0.00,,,0.00,weatherlink.com 1.10,2013-02-03 20:15:00,
2013-02-03 15:30:00,49.0,24.0,29.93,NW,307,9.0,23.0,37,0.00,,,0.00,weatherlink.com 1.10,2013-02-03 20:30:00,
2013-02-03 15:45:00,48.3,24.0,29.93,North,354,9.0,22.0,38,0.00,,,0.00,weatherlink.com 1.10,2013-02-03 20:45:00,
2013-02-03 16:00:00,46.8,25.0,29.94,NW,305,8.0,27.0,42,0.00,,,0.00,weatherlink.com 1.10,2013-02-03 21:00:00,
2013-02-03 16:16:00,46.3,25.0,29.95,NW,310,14.0,22.0,43,0.00,,,0.00,weatherlink.com 1.10,2013-02-03 21:16:00,
2013-02-03 16:30:00,46.4,25.0,29.95,West,280,13.0,21.0,44,0.00,,,0.00,weatherlink.com 1.10,2013-02-03 21:30:00,
2013-02-03 16:46:00,47.0,25.0,29.96,NW,305,9.0,25.0,43,0.00,,,0.00,weatherlink.com 1.10,2013-02-03 21:46:00,
2013-02-03 17:01:00,46.1,26.0,29.97,WNW,293,21.0,23.0,45,0.00,,,0.00,weatherlink.com 1.10,2013-02-03 22:01:00,
2013-02-03 17:16:00,44.9,26.0,29.96,WNW,303,10.0,20.0,48,0.00,,,0.00,weatherlink.com 1.10,2013-02-03 22:16:00,
2013-02-03 17:31:00,44.7,26.0,29.97,NW,324,8.0,17.0,49,0.00,,,0.00,weatherlink.com 1.10,2013-02-03 22:31:00,
2013-02-03 17:46:00,43.6,26.0,29.98,NW,305,8.0,12.0,51,0.00,,,0.00,weatherlink.com 1.10,2013-02-03 22:46:00,
2013-02-03 18:01:00,42.9,25.0,29.97,WNW,287,18.0,18.0,50,0.00,,,0.00,weatherlink.com 1.10,2013-02-03 23:01:00,
2013-02-03 18:16:00,42.5,24.0,29.97,WNW,301,12.0,25.0,49,0.00,,,0.00,weatherlink.com 1.10,2013-02-03 23:16:00,
2013-02-03 18:31:00,42.2,25.0,29.98,WNW,301,12.0,22.0,50,0.00,,,0.00,weatherlink.com 1.10,2013-02-03 23:31:00,
2013-02-03 18:46:00,42.0,24.0,29.98,NW,318,17.0,25.0,50,0.00,,,0.00,weatherlink.com 1.10,2013-02-03 23:46:00,
2013-02-03 19:01:00,42.0,24.0,29.98,NW,316,12.0,27.0,50,0.00,,,0.00,weatherlink.com 1.10,2013-02-04 00:01:00,
2013-02-03 19:16:00,41.5,24.0,29.98,WNW,299,8.0,21.0,51,0.00,,,0.00,weatherlink.com 1.10,2013-02-04 00:16:00,
2013-02-03 19:31:00,41.3,24.0,29.98,NNW,339,12.0,17.0,51,0.00,,,0.00,weatherlink.com 1.10,2013-02-04 00:31:00,
2013-02-03 19:46:00,41.4,25.0,29.99,West,278,4.0,18.0,52,0.00,,,0.00,weatherlink.com 1.10,2013-02-04 00:46:00,
2013-02-03 20:01:00,41.3,25.0,30.00,NW,318,4.0,17.0,52,0.00,,,0.00,weatherlink.com 1.10,2013-02-04 01:01:00,
2013-02-03 20:16:00,41.2,25.0,30.00,NW,314,4.0,17.0,52,0.00,,,0.00,weatherlink.com 1.10,2013-02-04 01:16:00,
2013-02-03 20:31:00,40.6,24.0,30.01,NW,322,4.0,12.0,52,0.00,,,0.00,weatherlink.com 1.10,2013-02-04 01:31:00,
2013-02-03 20:46:00,40.5,24.0,30.01,NW,317,4.0,15.0,52,0.00,,,0.00,weatherlink.com 1.10,2013-02-04 01:46:00,
2013-02-03 21:01:00,40.2,23.0,30.02,NNW,348,2.0,12.0,51,0.00,,,0.00,weatherlink.com 1.10,2013-02-04 02:01:00,
2013-02-03 21:16:00,39.7,23.0,30.02,NW,306,4.0,16.0,51,0.00,,,0.00,weatherlink.com 1.10,2013-02-04 02:16:00,
2013-02-03 21:31:00,39.6,23.0,30.02,WNW,301,6.0,11.0,51,0.00,,,0.00,weatherlink.com 1.10,2013-02-04 02:31:00,
2013-02-03 21:46:00,39.4,22.0,30.02,WNW,299,8.0,17.0,50,0.00,,,0.00,weatherlink.com 1.10,2013-02-04 02:46:00,
2013-02-03 22:01:00,38.5,23.0,30.02,West,275,7.0,8.0,53,0.00,,,0.00,weatherlink.com 1.10,2013-02-04 03:01:00,
2013-02-03 22:16:00,38.0,22.0,30.03,WSW,240,2.0,6.0,53,0.00,,,0.00,weatherlink.com 1.10,2013-02-04 03:16:00,
2013-02-03 22:31:00,37.5,22.0,30.03,SSW,209,3.0,7.0,54,0.00,,,0.00,weatherlink.com 1.10,2013-02-04 03:31:00,
2013-02-03 22:46:00,37.5,22.0,30.02,WNW,301,5.0,8.0,53,0.00,,,0.00,weatherlink.com 1.10,2013-02-04 03:46:00,
2013-02-03 23:01:00,37.2,21.0,30.03,WNW,299,3.0,10.0,53,0.00,,,0.00,weatherlink.com 1.10,2013-02-04 04:01:00,
2013-02-03 23:16:00,37.0,21.0,30.04,NW,306,1.0,6.0,53,0.00,,,0.00,weatherlink.com 1.10,2013-02-04 04:16:00,
2013-02-03 23:31:00,36.3,20.0,30.04,NNE,18,0.0,2.0,53,0.00,,,0.00,weatherlink.com 1.10,2013-02-04 04:31:00,
2013-02-03 23:46:00,35.6,21.0,30.04,NNE,18,0.0,1.0,55,0.00,,,0.00,weatherlink.com 1.10,2013-02-04 04:46:00,